sensor_id;sensor_type;location;lat;lon;timestamp;P1;durP1;ratioP1;P2;durP2;ratioP2
10900;SDS011;5503;53.208;10.392;2023-02-01T00:00:40;12.80;;;2.53;;
10900;SDS011;5503;53.208;10.392;2023-02-01T00:03:08;11.43;;;2.92;;
10900;SDS011;5503;53.208;10.392;2023-02-01T00:05:37;16.77;;;2.73;;
10900;SDS011;5503;53.208;10.392;2023-02-01T00:08:05;14.98;;;4.38;;
10900;SDS011;5503;53.208;10.392;2023-02-01T00:10:32;14.75;;;2.92;;
10900;SDS011;5503;53.208;10.392;2023-02-01T00:13:00;13.30;;;2.42;;
10900;SDS011;5503;53.208;10.392;2023-02-01T00:15:27;7.55;;;2.05;;
10900;SDS011;5503;53.208;10.392;2023-02-01T00:17:56;20.93;;;3.80;;
10900;SDS011;5503;53.208;10.392;2023-02-01T00:20:25;11.68;;;2.95;;
10900;SDS011;5503;53.208;10.392;2023-02-01T00:22:57;19.25;;;3.03;;
10900;SDS011;5503;53.208;10.392;2023-02-01T00:25:31;17.60;;;2.92;;
10900;SDS011;5503;53.208;10.392;2023-02-01T00:28:02;19.83;;;3.45;;
10900;SDS011;5503;53.208;10.392;2023-02-01T00:30:29;21.67;;;3.23;;
10900;SDS011;5503;53.208;10.392;2023-02-01T00:32:56;18.98;;;3.13;;
10900;SDS011;5503;53.208;10.392;2023-02-01T00:35:23;23.33;;;3.60;;
10900;SDS011;5503;53.208;10.392;2023-02-01T00:37:50;20.33;;;3.10;;
10900;SDS011;5503;53.208;10.392;2023-02-01T00:40:17;17.80;;;2.63;;
10900;SDS011;5503;53.208;10.392;2023-02-01T00:42:44;9.87;;;2.37;;
10900;SDS011;5503;53.208;10.392;2023-02-01T00:45:13;14.77;;;2.70;;
10900;SDS011;5503;53.208;10.392;2023-02-01T00:47:40;19.52;;;2.80;;
10900;SDS011;5503;53.208;10.392;2023-02-01T00:50:08;15.10;;;3.22;;
10900;SDS011;5503;53.208;10.392;2023-02-01T00:52:36;23.48;;;2.78;;
10900;SDS011;5503;53.208;10.392;2023-02-01T00:55:03;15.57;;;3.63;;
10900;SDS011;5503;53.208;10.392;2023-02-01T00:57:30;25.55;;;3.60;;
10900;SDS011;5503;53.208;10.392;2023-02-01T00:59:57;15.35;;;3.13;;
10900;SDS011;5503;53.208;10.392;2023-02-01T01:02:31;14.90;;;2.70;;
10900;SDS011;5503;53.208;10.392;2023-02-01T01:04:58;10.07;;;2.33;;
10900;SDS011;5503;53.208;10.392;2023-02-01T01:07:27;15.90;;;2.43;;
10900;SDS011;5503;53.208;10.392;2023-02-01T01:09:54;13.93;;;2.90;;
10900;SDS011;5503;53.208;10.392;2023-02-01T01:12:21;14.68;;;2.83;;
10900;SDS011;5503;53.208;10.392;2023-02-01T01:14:51;12.80;;;2.20;;
10900;SDS011;5503;53.208;10.392;2023-02-01T01:17:18;15.20;;;2.97;;
10900;SDS011;5503;53.208;10.392;2023-02-01T01:19:47;19.23;;;2.80;;
10900;SDS011;5503;53.208;10.392;2023-02-01T01:22:14;17.42;;;3.50;;
10900;SDS011;5503;53.208;10.392;2023-02-01T01:24:43;17.60;;;3.25;;
10900;SDS011;5503;53.208;10.392;2023-02-01T01:27:10;17.35;;;3.40;;
10900;SDS011;5503;53.208;10.392;2023-02-01T01:29:40;12.07;;;2.75;;
10900;SDS011;5503;53.208;10.392;2023-02-01T01:32:10;13.57;;;3.37;;
10900;SDS011;5503;53.208;10.392;2023-02-01T01:34:37;9.80;;;2.20;;
10900;SDS011;5503;53.208;10.392;2023-02-01T01:37:09;22.25;;;3.95;;
10900;SDS011;5503;53.208;10.392;2023-02-01T01:39:36;20.05;;;3.05;;
10900;SDS011;5503;53.208;10.392;2023-02-01T01:42:03;21.70;;;3.53;;
10900;SDS011;5503;53.208;10.392;2023-02-01T01:47:23;17.33;;;4.90;;
10900;SDS011;5503;53.208;10.392;2023-02-01T01:49:53;18.65;;;4.55;;
10900;SDS011;5503;53.208;10.392;2023-02-01T01:52:27;11.80;;;2.80;;
10900;SDS011;5503;53.208;10.392;2023-02-01T01:54:57;19.58;;;2.92;;
10900;SDS011;5503;53.208;10.392;2023-02-01T01:57:26;19.37;;;3.40;;
10900;SDS011;5503;53.208;10.392;2023-02-01T01:59:59;25.30;;;4.68;;
10900;SDS011;5503;53.208;10.392;2023-02-01T02:02:33;31.50;;;4.45;;
10900;SDS011;5503;53.208;10.392;2023-02-01T02:05:01;14.52;;;3.30;;
10900;SDS011;5503;53.208;10.392;2023-02-01T02:07:30;16.30;;;2.70;;
10900;SDS011;5503;53.208;10.392;2023-02-01T02:10:03;18.00;;;3.53;;
10900;SDS011;5503;53.208;10.392;2023-02-01T02:12:29;23.85;;;3.33;;
10900;SDS011;5503;53.208;10.392;2023-02-01T02:14:57;16.67;;;2.90;;
10900;SDS011;5503;53.208;10.392;2023-02-01T02:17:31;16.55;;;3.30;;
10900;SDS011;5503;53.208;10.392;2023-02-01T02:20:17;12.38;;;2.80;;
10900;SDS011;5503;53.208;10.392;2023-02-01T02:23:11;25.57;;;3.97;;
10900;SDS011;5503;53.208;10.392;2023-02-01T02:26:12;16.33;;;3.90;;
10900;SDS011;5503;53.208;10.392;2023-02-01T02:35:04;16.45;;;3.45;;
10900;SDS011;5503;53.208;10.392;2023-02-01T02:37:41;19.77;;;3.07;;
10900;SDS011;5503;53.208;10.392;2023-02-01T02:40:14;24.10;;;3.60;;
10900;SDS011;5503;53.208;10.392;2023-02-01T02:42:49;23.42;;;4.25;;
10900;SDS011;5503;53.208;10.392;2023-02-01T02:45:40;18.77;;;2.72;;
10900;SDS011;5503;53.208;10.392;2023-02-01T02:48:29;24.50;;;3.22;;
10900;SDS011;5503;53.208;10.392;2023-02-01T02:51:05;15.43;;;2.70;;
10900;SDS011;5503;53.208;10.392;2023-02-01T02:53:59;16.40;;;2.70;;
10900;SDS011;5503;53.208;10.392;2023-02-01T02:56:48;14.55;;;2.40;;
10900;SDS011;5503;53.208;10.392;2023-02-01T02:59:34;23.83;;;3.55;;
10900;SDS011;5503;53.208;10.392;2023-02-01T03:02:20;26.85;;;3.25;;
10900;SDS011;5503;53.208;10.392;2023-02-01T03:05:05;24.17;;;3.37;;
10900;SDS011;5503;53.208;10.392;2023-02-01T03:07:52;18.75;;;3.92;;
10900;SDS011;5503;53.208;10.392;2023-02-01T03:10:24;17.30;;;3.20;;
10900;SDS011;5503;53.208;10.392;2023-02-01T03:12:59;18.13;;;2.75;;
10900;SDS011;5503;53.208;10.392;2023-02-01T03:15:31;22.92;;;2.67;;
10900;SDS011;5503;53.208;10.392;2023-02-01T03:18:00;13.53;;;2.80;;
10900;SDS011;5503;53.208;10.392;2023-02-01T03:20:32;18.55;;;3.15;;
10900;SDS011;5503;53.208;10.392;2023-02-01T03:23:01;23.00;;;3.38;;
10900;SDS011;5503;53.208;10.392;2023-02-01T03:25:31;18.10;;;3.45;;
10900;SDS011;5503;53.208;10.392;2023-02-01T03:28:01;20.52;;;3.70;;
10900;SDS011;5503;53.208;10.392;2023-02-01T03:30:31;12.93;;;2.50;;
10900;SDS011;5503;53.208;10.392;2023-02-01T03:33:01;14.93;;;3.90;;
10900;SDS011;5503;53.208;10.392;2023-02-01T03:35:37;15.55;;;3.47;;
10900;SDS011;5503;53.208;10.392;2023-02-01T03:38:14;14.20;;;3.10;;
10900;SDS011;5503;53.208;10.392;2023-02-01T03:40:49;19.45;;;3.92;;
10900;SDS011;5503;53.208;10.392;2023-02-01T03:43:19;16.03;;;3.57;;
10900;SDS011;5503;53.208;10.392;2023-02-01T03:45:50;14.60;;;2.60;;
10900;SDS011;5503;53.208;10.392;2023-02-01T03:48:20;14.73;;;3.15;;
10900;SDS011;5503;53.208;10.392;2023-02-01T03:50:51;17.50;;;2.55;;
10900;SDS011;5503;53.208;10.392;2023-02-01T03:53:22;22.05;;;4.38;;
10900;SDS011;5503;53.208;10.392;2023-02-01T03:55:51;22.03;;;3.37;;
10900;SDS011;5503;53.208;10.392;2023-02-01T03:58:20;13.98;;;2.90;;
10900;SDS011;5503;53.208;10.392;2023-02-01T04:00:50;8.93;;;2.40;;
10900;SDS011;5503;53.208;10.392;2023-02-01T04:03:17;12.77;;;2.67;;
10900;SDS011;5503;53.208;10.392;2023-02-01T04:05:46;7.90;;;2.38;;
10900;SDS011;5503;53.208;10.392;2023-02-01T04:08:13;8.83;;;2.10;;
10900;SDS011;5503;53.208;10.392;2023-02-01T04:10:41;7.57;;;1.77;;
10900;SDS011;5503;53.208;10.392;2023-02-01T04:13:09;8.50;;;1.70;;
10900;SDS011;5503;53.208;10.392;2023-02-01T04:15:36;6.85;;;2.00;;
10900;SDS011;5503;53.208;10.392;2023-02-01T04:18:03;4.82;;;1.88;;
10900;SDS011;5503;53.208;10.392;2023-02-01T04:20:30;6.00;;;1.57;;
10900;SDS011;5503;53.208;10.392;2023-02-01T04:22:57;9.32;;;2.25;;
10900;SDS011;5503;53.208;10.392;2023-02-01T04:25:24;4.22;;;1.40;;
10900;SDS011;5503;53.208;10.392;2023-02-01T04:27:53;6.22;;;1.75;;
10900;SDS011;5503;53.208;10.392;2023-02-01T04:30:20;4.55;;;1.50;;
10900;SDS011;5503;53.208;10.392;2023-02-01T04:32:48;11.70;;;1.93;;
10900;SDS011;5503;53.208;10.392;2023-02-01T04:35:15;5.07;;;1.90;;
10900;SDS011;5503;53.208;10.392;2023-02-01T04:37:42;7.22;;;1.67;;
10900;SDS011;5503;53.208;10.392;2023-02-01T04:40:10;4.85;;;1.50;;
10900;SDS011;5503;53.208;10.392;2023-02-01T04:42:37;4.32;;;1.48;;
10900;SDS011;5503;53.208;10.392;2023-02-01T04:45:06;4.57;;;1.23;;
10900;SDS011;5503;53.208;10.392;2023-02-01T04:47:34;5.38;;;1.40;;
10900;SDS011;5503;53.208;10.392;2023-02-01T04:50:00;11.88;;;2.15;;
10900;SDS011;5503;53.208;10.392;2023-02-01T04:52:27;5.28;;;1.88;;
10900;SDS011;5503;53.208;10.392;2023-02-01T04:54:54;5.50;;;2.00;;
10900;SDS011;5503;53.208;10.392;2023-02-01T04:57:22;9.50;;;2.20;;
10900;SDS011;5503;53.208;10.392;2023-02-01T04:59:49;4.43;;;1.73;;
10900;SDS011;5503;53.208;10.392;2023-02-01T05:02:17;6.90;;;2.40;;
10900;SDS011;5503;53.208;10.392;2023-02-01T05:04:44;6.45;;;2.25;;
10900;SDS011;5503;53.208;10.392;2023-02-01T05:07:11;8.30;;;2.05;;
10900;SDS011;5503;53.208;10.392;2023-02-01T05:09:38;7.17;;;1.93;;
10900;SDS011;5503;53.208;10.392;2023-02-01T05:12:05;6.28;;;1.98;;
10900;SDS011;5503;53.208;10.392;2023-02-01T05:14:49;7.93;;;2.50;;
10900;SDS011;5503;53.208;10.392;2023-02-01T05:17:18;6.68;;;1.50;;
10900;SDS011;5503;53.208;10.392;2023-02-01T05:19:44;3.90;;;1.35;;
10900;SDS011;5503;53.208;10.392;2023-02-01T05:22:11;5.17;;;1.90;;
10900;SDS011;5503;53.208;10.392;2023-02-01T05:24:38;5.18;;;1.70;;
10900;SDS011;5503;53.208;10.392;2023-02-01T05:27:05;8.32;;;1.73;;
10900;SDS011;5503;53.208;10.392;2023-02-01T05:29:32;6.07;;;1.63;;
10900;SDS011;5503;53.208;10.392;2023-02-01T05:31:59;5.78;;;2.08;;
10900;SDS011;5503;53.208;10.392;2023-02-01T05:34:27;6.33;;;1.97;;
10900;SDS011;5503;53.208;10.392;2023-02-01T05:36:54;4.82;;;1.98;;
10900;SDS011;5503;53.208;10.392;2023-02-01T05:39:21;6.40;;;2.13;;
10900;SDS011;5503;53.208;10.392;2023-02-01T05:41:47;5.93;;;1.70;;
10900;SDS011;5503;53.208;10.392;2023-02-01T05:44:14;7.60;;;2.08;;
10900;SDS011;5503;53.208;10.392;2023-02-01T05:46:41;6.73;;;1.80;;
10900;SDS011;5503;53.208;10.392;2023-02-01T05:49:08;6.63;;;1.80;;
10900;SDS011;5503;53.208;10.392;2023-02-01T05:51:36;5.28;;;1.60;;
10900;SDS011;5503;53.208;10.392;2023-02-01T05:54:03;5.47;;;2.30;;
10900;SDS011;5503;53.208;10.392;2023-02-01T05:56:30;6.25;;;1.80;;
10900;SDS011;5503;53.208;10.392;2023-02-01T05:58:57;3.40;;;1.70;;
10900;SDS011;5503;53.208;10.392;2023-02-01T06:01:24;8.23;;;1.92;;
10900;SDS011;5503;53.208;10.392;2023-02-01T06:03:51;5.70;;;1.90;;
10900;SDS011;5503;53.208;10.392;2023-02-01T06:06:17;7.70;;;1.38;;
10900;SDS011;5503;53.208;10.392;2023-02-01T06:08:46;6.55;;;1.55;;
10900;SDS011;5503;53.208;10.392;2023-02-01T06:11:13;3.43;;;1.30;;
10900;SDS011;5503;53.208;10.392;2023-02-01T06:13:40;5.00;;;1.38;;
10900;SDS011;5503;53.208;10.392;2023-02-01T06:16:07;4.85;;;1.52;;
10900;SDS011;5503;53.208;10.392;2023-02-01T06:18:33;5.85;;;0.98;;
10900;SDS011;5503;53.208;10.392;2023-02-01T06:21:01;7.70;;;1.60;;
10900;SDS011;5503;53.208;10.392;2023-02-01T06:23:28;4.30;;;1.60;;
10900;SDS011;5503;53.208;10.392;2023-02-01T06:25:59;3.38;;;1.63;;
10900;SDS011;5503;53.208;10.392;2023-02-01T06:28:28;4.80;;;1.83;;
10900;SDS011;5503;53.208;10.392;2023-02-01T06:30:55;3.35;;;1.48;;
10900;SDS011;5503;53.208;10.392;2023-02-01T06:33:23;3.50;;;1.88;;
10900;SDS011;5503;53.208;10.392;2023-02-01T06:35:55;5.30;;;1.70;;
10900;SDS011;5503;53.208;10.392;2023-02-01T06:38:23;3.40;;;1.60;;
10900;SDS011;5503;53.208;10.392;2023-02-01T06:40:51;3.13;;;1.60;;
10900;SDS011;5503;53.208;10.392;2023-02-01T06:43:21;4.15;;;1.48;;
10900;SDS011;5503;53.208;10.392;2023-02-01T06:45:48;3.13;;;1.55;;
10900;SDS011;5503;53.208;10.392;2023-02-01T06:48:14;3.27;;;1.43;;
10900;SDS011;5503;53.208;10.392;2023-02-01T06:50:41;3.20;;;1.70;;
10900;SDS011;5503;53.208;10.392;2023-02-01T06:53:08;4.55;;;1.70;;
10900;SDS011;5503;53.208;10.392;2023-02-01T06:55:35;7.13;;;1.65;;
10900;SDS011;5503;53.208;10.392;2023-02-01T06:58:02;6.10;;;1.73;;
10900;SDS011;5503;53.208;10.392;2023-02-01T07:00:30;5.00;;;1.40;;
10900;SDS011;5503;53.208;10.392;2023-02-01T07:02:57;4.00;;;1.60;;
10900;SDS011;5503;53.208;10.392;2023-02-01T07:05:25;7.38;;;1.80;;
10900;SDS011;5503;53.208;10.392;2023-02-01T07:07:52;3.00;;;1.15;;
10900;SDS011;5503;53.208;10.392;2023-02-01T07:10:18;5.18;;;1.55;;
10900;SDS011;5503;53.208;10.392;2023-02-01T07:12:45;3.87;;;1.57;;
10900;SDS011;5503;53.208;10.392;2023-02-01T07:15:12;5.47;;;1.48;;
10900;SDS011;5503;53.208;10.392;2023-02-01T07:17:40;3.80;;;1.60;;
10900;SDS011;5503;53.208;10.392;2023-02-01T07:20:08;2.97;;;1.30;;
10900;SDS011;5503;53.208;10.392;2023-02-01T07:22:35;6.10;;;1.65;;
10900;SDS011;5503;53.208;10.392;2023-02-01T07:25:02;3.80;;;1.43;;
10900;SDS011;5503;53.208;10.392;2023-02-01T07:27:30;4.72;;;1.50;;
10900;SDS011;5503;53.208;10.392;2023-02-01T07:29:59;3.60;;;1.13;;
10900;SDS011;5503;53.208;10.392;2023-02-01T07:32:27;5.82;;;1.60;;
10900;SDS011;5503;53.208;10.392;2023-02-01T07:34:55;8.95;;;1.70;;
10900;SDS011;5503;53.208;10.392;2023-02-01T07:37:22;6.80;;;1.70;;
10900;SDS011;5503;53.208;10.392;2023-02-01T07:39:50;6.38;;;1.80;;
10900;SDS011;5503;53.208;10.392;2023-02-01T07:42:16;6.60;;;2.03;;
10900;SDS011;5503;53.208;10.392;2023-02-01T07:44:44;10.00;;;2.30;;
10900;SDS011;5503;53.208;10.392;2023-02-01T07:47:10;13.55;;;2.47;;
10900;SDS011;5503;53.208;10.392;2023-02-01T07:49:37;8.47;;;2.33;;
10900;SDS011;5503;53.208;10.392;2023-02-01T07:52:06;10.55;;;2.38;;
10900;SDS011;5503;53.208;10.392;2023-02-01T07:54:33;7.85;;;1.90;;
10900;SDS011;5503;53.208;10.392;2023-02-01T07:57:00;11.88;;;2.50;;
10900;SDS011;5503;53.208;10.392;2023-02-01T07:59:26;12.02;;;2.70;;
10900;SDS011;5503;53.208;10.392;2023-02-01T08:01:53;7.00;;;2.90;;
10900;SDS011;5503;53.208;10.392;2023-02-01T08:04:19;11.32;;;1.95;;
10900;SDS011;5503;53.208;10.392;2023-02-01T08:06:46;16.70;;;2.38;;
10900;SDS011;5503;53.208;10.392;2023-02-01T08:09:14;15.90;;;3.08;;
10900;SDS011;5503;53.208;10.392;2023-02-01T08:11:41;16.33;;;2.97;;
10900;SDS011;5503;53.208;10.392;2023-02-01T08:14:08;15.65;;;2.90;;
10900;SDS011;5503;53.208;10.392;2023-02-01T08:16:35;9.27;;;2.38;;
10900;SDS011;5503;53.208;10.392;2023-02-01T08:19:04;12.90;;;2.60;;
10900;SDS011;5503;53.208;10.392;2023-02-01T08:21:31;19.90;;;3.35;;
10900;SDS011;5503;53.208;10.392;2023-02-01T08:24:03;12.73;;;2.30;;
10900;SDS011;5503;53.208;10.392;2023-02-01T08:26:32;8.18;;;1.90;;
10900;SDS011;5503;53.208;10.392;2023-02-01T08:29:01;11.00;;;2.50;;
10900;SDS011;5503;53.208;10.392;2023-02-01T08:31:29;10.95;;;2.05;;
10900;SDS011;5503;53.208;10.392;2023-02-01T08:33:57;14.02;;;2.38;;
10900;SDS011;5503;53.208;10.392;2023-02-01T08:36:26;22.43;;;3.27;;
10900;SDS011;5503;53.208;10.392;2023-02-01T08:38:54;5.90;;;1.95;;
10900;SDS011;5503;53.208;10.392;2023-02-01T08:41:22;19.65;;;2.90;;
10900;SDS011;5503;53.208;10.392;2023-02-01T08:43:51;11.35;;;2.65;;
10900;SDS011;5503;53.208;10.392;2023-02-01T08:46:19;13.05;;;3.45;;
10900;SDS011;5503;53.208;10.392;2023-02-01T08:48:46;18.23;;;3.30;;
10900;SDS011;5503;53.208;10.392;2023-02-01T08:51:15;14.88;;;2.70;;
10900;SDS011;5503;53.208;10.392;2023-02-01T08:53:43;18.65;;;3.25;;
10900;SDS011;5503;53.208;10.392;2023-02-01T08:56:10;13.63;;;3.30;;
10900;SDS011;5503;53.208;10.392;2023-02-01T08:58:39;12.52;;;2.78;;
10900;SDS011;5503;53.208;10.392;2023-02-01T09:01:08;7.90;;;3.00;;
10900;SDS011;5503;53.208;10.392;2023-02-01T09:03:36;17.17;;;2.72;;
10900;SDS011;5503;53.208;10.392;2023-02-01T09:06:04;23.50;;;3.40;;
10900;SDS011;5503;53.208;10.392;2023-02-01T09:08:32;15.68;;;3.10;;
10900;SDS011;5503;53.208;10.392;2023-02-01T09:10:59;12.57;;;2.85;;
10900;SDS011;5503;53.208;10.392;2023-02-01T09:13:27;13.17;;;3.10;;
10900;SDS011;5503;53.208;10.392;2023-02-01T09:15:54;14.88;;;3.05;;
10900;SDS011;5503;53.208;10.392;2023-02-01T09:18:22;12.88;;;3.15;;
10900;SDS011;5503;53.208;10.392;2023-02-01T09:20:49;23.08;;;3.53;;
10900;SDS011;5503;53.208;10.392;2023-02-01T09:23:16;12.30;;;2.95;;
10900;SDS011;5503;53.208;10.392;2023-02-01T09:25:45;13.10;;;3.27;;
10900;SDS011;5503;53.208;10.392;2023-02-01T09:28:14;14.55;;;2.42;;
10900;SDS011;5503;53.208;10.392;2023-02-01T09:30:42;18.85;;;2.67;;
10900;SDS011;5503;53.208;10.392;2023-02-01T09:33:09;10.95;;;2.60;;
10900;SDS011;5503;53.208;10.392;2023-02-01T09:35:37;17.65;;;3.20;;
10900;SDS011;5503;53.208;10.392;2023-02-01T09:38:04;18.17;;;2.77;;
10900;SDS011;5503;53.208;10.392;2023-02-01T09:40:31;12.00;;;2.78;;
10900;SDS011;5503;53.208;10.392;2023-02-01T09:43:04;15.55;;;3.58;;
10900;SDS011;5503;53.208;10.392;2023-02-01T09:45:48;14.43;;;2.67;;
10900;SDS011;5503;53.208;10.392;2023-02-01T09:48:23;16.05;;;3.00;;
10900;SDS011;5503;53.208;10.392;2023-02-01T09:50:56;11.90;;;2.60;;
10900;SDS011;5503;53.208;10.392;2023-02-01T09:53:26;13.98;;;3.15;;
10900;SDS011;5503;53.208;10.392;2023-02-01T09:55:59;18.63;;;3.53;;
10900;SDS011;5503;53.208;10.392;2023-02-01T09:58:32;16.63;;;4.43;;
10900;SDS011;5503;53.208;10.392;2023-02-01T10:01:04;13.32;;;2.90;;
10900;SDS011;5503;53.208;10.392;2023-02-01T10:03:37;14.40;;;3.00;;
10900;SDS011;5503;53.208;10.392;2023-02-01T10:06:16;18.08;;;3.05;;
10900;SDS011;5503;53.208;10.392;2023-02-01T10:08:57;9.30;;;2.83;;
10900;SDS011;5503;53.208;10.392;2023-02-01T10:11:48;12.70;;;3.20;;
10900;SDS011;5503;53.208;10.392;2023-02-01T10:17:28;10.37;;;2.63;;
10900;SDS011;5503;53.208;10.392;2023-02-01T10:20:07;12.48;;;2.95;;
10900;SDS011;5503;53.208;10.392;2023-02-01T10:22:45;30.30;;;3.67;;
10900;SDS011;5503;53.208;10.392;2023-02-01T10:25:19;19.17;;;3.72;;
10900;SDS011;5503;53.208;10.392;2023-02-01T10:27:49;13.77;;;2.42;;
10900;SDS011;5503;53.208;10.392;2023-02-01T10:30:18;12.30;;;2.30;;
10900;SDS011;5503;53.208;10.392;2023-02-01T10:32:47;13.73;;;3.13;;
10900;SDS011;5503;53.208;10.392;2023-02-01T10:35:18;14.75;;;2.53;;
10900;SDS011;5503;53.208;10.392;2023-02-01T10:37:51;12.63;;;2.90;;
10900;SDS011;5503;53.208;10.392;2023-02-01T10:40:19;14.15;;;3.35;;
10900;SDS011;5503;53.208;10.392;2023-02-01T10:42:48;15.37;;;2.70;;
10900;SDS011;5503;53.208;10.392;2023-02-01T10:45:17;16.33;;;2.72;;
10900;SDS011;5503;53.208;10.392;2023-02-01T10:47:46;19.77;;;3.30;;
10900;SDS011;5503;53.208;10.392;2023-02-01T10:50:16;15.23;;;2.42;;
10900;SDS011;5503;53.208;10.392;2023-02-01T10:52:52;12.38;;;2.47;;
10900;SDS011;5503;53.208;10.392;2023-02-01T10:55:36;17.43;;;3.23;;
10900;SDS011;5503;53.208;10.392;2023-02-01T10:58:06;19.48;;;2.63;;
10900;SDS011;5503;53.208;10.392;2023-02-01T11:00:44;16.63;;;3.53;;
10900;SDS011;5503;53.208;10.392;2023-02-01T11:03:19;14.02;;;2.63;;
10900;SDS011;5503;53.208;10.392;2023-02-01T11:05:54;14.82;;;2.72;;
10900;SDS011;5503;53.208;10.392;2023-02-01T11:08:23;9.17;;;2.10;;
10900;SDS011;5503;53.208;10.392;2023-02-01T11:10:56;22.73;;;3.10;;
10900;SDS011;5503;53.208;10.392;2023-02-01T11:13:28;14.73;;;2.55;;
10900;SDS011;5503;53.208;10.392;2023-02-01T11:15:56;15.25;;;2.75;;
10900;SDS011;5503;53.208;10.392;2023-02-01T11:18:25;18.33;;;3.30;;
10900;SDS011;5503;53.208;10.392;2023-02-01T11:20:53;13.33;;;3.17;;
10900;SDS011;5503;53.208;10.392;2023-02-01T11:23:21;15.25;;;2.72;;
10900;SDS011;5503;53.208;10.392;2023-02-01T11:25:53;19.90;;;3.50;;
10900;SDS011;5503;53.208;10.392;2023-02-01T11:28:22;13.23;;;3.00;;
10900;SDS011;5503;53.208;10.392;2023-02-01T11:30:53;14.63;;;3.03;;
10900;SDS011;5503;53.208;10.392;2023-02-01T11:33:23;12.03;;;2.77;;
10900;SDS011;5503;53.208;10.392;2023-02-01T11:35:56;16.45;;;3.20;;
10900;SDS011;5503;53.208;10.392;2023-02-01T11:38:28;12.07;;;2.85;;
10900;SDS011;5503;53.208;10.392;2023-02-01T11:40:57;18.35;;;3.28;;
10900;SDS011;5503;53.208;10.392;2023-02-01T11:43:38;9.85;;;2.97;;
10900;SDS011;5503;53.208;10.392;2023-02-01T11:46:22;13.50;;;2.70;;
10900;SDS011;5503;53.208;10.392;2023-02-01T11:48:55;14.07;;;2.97;;
10900;SDS011;5503;53.208;10.392;2023-02-01T11:51:35;12.15;;;2.88;;
10900;SDS011;5503;53.208;10.392;2023-02-01T11:54:14;17.25;;;3.58;;
10900;SDS011;5503;53.208;10.392;2023-02-01T11:56:53;10.65;;;2.40;;
10900;SDS011;5503;53.208;10.392;2023-02-01T11:59:45;13.10;;;2.43;;
10900;SDS011;5503;53.208;10.392;2023-02-01T12:05:22;13.60;;;2.70;;
10900;SDS011;5503;53.208;10.392;2023-02-01T12:08:01;12.32;;;2.17;;
10900;SDS011;5503;53.208;10.392;2023-02-01T12:10:41;14.95;;;2.45;;
10900;SDS011;5503;53.208;10.392;2023-02-01T12:13:17;12.67;;;3.40;;
10900;SDS011;5503;53.208;10.392;2023-02-01T12:15:56;11.68;;;2.80;;
10900;SDS011;5503;53.208;10.392;2023-02-01T12:22:14;8.48;;;2.15;;
10900;SDS011;5503;53.208;10.392;2023-02-01T12:24:58;8.13;;;2.35;;
10900;SDS011;5503;53.208;10.392;2023-02-01T12:27:48;10.33;;;2.63;;
10900;SDS011;5503;53.208;10.392;2023-02-01T12:30:34;4.05;;;1.40;;
10900;SDS011;5503;53.208;10.392;2023-02-01T12:33:15;5.10;;;1.95;;
10900;SDS011;5503;53.208;10.392;2023-02-01T12:35:56;7.60;;;2.00;;
10900;SDS011;5503;53.208;10.392;2023-02-01T12:38:36;4.50;;;1.85;;
10900;SDS011;5503;53.208;10.392;2023-02-01T12:41:15;8.10;;;2.20;;
10900;SDS011;5503;53.208;10.392;2023-02-01T12:44:03;7.90;;;1.67;;
10900;SDS011;5503;53.208;10.392;2023-02-01T12:46:35;6.05;;;2.15;;
10900;SDS011;5503;53.208;10.392;2023-02-01T12:49:08;6.90;;;2.33;;
10900;SDS011;5503;53.208;10.392;2023-02-01T12:51:42;7.97;;;2.67;;
10900;SDS011;5503;53.208;10.392;2023-02-01T12:54:12;5.80;;;2.00;;
10900;SDS011;5503;53.208;10.392;2023-02-01T12:56:46;4.45;;;1.67;;
10900;SDS011;5503;53.208;10.392;2023-02-01T12:59:19;5.13;;;2.08;;
10900;SDS011;5503;53.208;10.392;2023-02-01T13:01:52;7.53;;;1.92;;
10900;SDS011;5503;53.208;10.392;2023-02-01T13:04:25;5.85;;;2.15;;
10900;SDS011;5503;53.208;10.392;2023-02-01T13:06:59;4.27;;;1.67;;
10900;SDS011;5503;53.208;10.392;2023-02-01T13:09:31;4.90;;;1.77;;
10900;SDS011;5503;53.208;10.392;2023-02-01T13:12:07;3.67;;;1.60;;
10900;SDS011;5503;53.208;10.392;2023-02-01T13:14:42;3.20;;;1.40;;
10900;SDS011;5503;53.208;10.392;2023-02-01T13:17:14;4.80;;;1.63;;
10900;SDS011;5503;53.208;10.392;2023-02-01T13:19:43;4.10;;;1.40;;
10900;SDS011;5503;53.208;10.392;2023-02-01T13:22:16;3.20;;;1.40;;
10900;SDS011;5503;53.208;10.392;2023-02-01T13:24:47;2.95;;;1.40;;
10900;SDS011;5503;53.208;10.392;2023-02-01T13:27:17;3.00;;;1.50;;
10900;SDS011;5503;53.208;10.392;2023-02-01T13:29:46;2.97;;;1.20;;
10900;SDS011;5503;53.208;10.392;2023-02-01T13:32:28;3.10;;;1.47;;
10900;SDS011;5503;53.208;10.392;2023-02-01T13:35:19;3.20;;;1.35;;
10900;SDS011;5503;53.208;10.392;2023-02-01T13:38:06;3.72;;;1.80;;
10900;SDS011;5503;53.208;10.392;2023-02-01T13:41:04;3.70;;;1.83;;
10900;SDS011;5503;53.208;10.392;2023-02-01T13:43:40;4.10;;;2.85;;
10900;SDS011;5503;53.208;10.392;2023-02-01T13:46:12;3.03;;;1.33;;
10900;SDS011;5503;53.208;10.392;2023-02-01T13:48:41;3.97;;;1.58;;
10900;SDS011;5503;53.208;10.392;2023-02-01T13:51:14;2.90;;;1.38;;
10900;SDS011;5503;53.208;10.392;2023-02-01T13:53:44;6.30;;;2.08;;
10900;SDS011;5503;53.208;10.392;2023-02-01T13:56:15;3.20;;;1.50;;
10900;SDS011;5503;53.208;10.392;2023-02-01T13:58:44;5.13;;;1.97;;
10900;SDS011;5503;53.208;10.392;2023-02-01T14:01:33;3.30;;;1.73;;
10900;SDS011;5503;53.208;10.392;2023-02-01T14:04:01;4.85;;;1.95;;
10900;SDS011;5503;53.208;10.392;2023-02-01T14:06:37;3.17;;;1.65;;
10900;SDS011;5503;53.208;10.392;2023-02-01T14:09:13;3.20;;;1.70;;
10900;SDS011;5503;53.208;10.392;2023-02-01T14:11:46;3.93;;;1.60;;
10900;SDS011;5503;53.208;10.392;2023-02-01T14:23:25;3.30;;;1.50;;
10900;SDS011;5503;53.208;10.392;2023-02-01T14:26:06;2.93;;;1.20;;
10900;SDS011;5503;53.208;10.392;2023-02-01T14:28:40;5.85;;;1.20;;
10900;SDS011;5503;53.208;10.392;2023-02-01T14:31:34;3.00;;;1.40;;
10900;SDS011;5503;53.208;10.392;2023-02-01T14:34:12;3.13;;;1.35;;
10900;SDS011;5503;53.208;10.392;2023-02-01T14:36:45;4.13;;;1.60;;
10900;SDS011;5503;53.208;10.392;2023-02-01T14:39:22;6.47;;;1.97;;
10900;SDS011;5503;53.208;10.392;2023-02-01T14:41:56;5.93;;;1.90;;
10900;SDS011;5503;53.208;10.392;2023-02-01T14:44:26;5.65;;;1.90;;
10900;SDS011;5503;53.208;10.392;2023-02-01T14:47:02;4.32;;;1.65;;
10900;SDS011;5503;53.208;10.392;2023-02-01T14:49:39;5.35;;;1.67;;
10900;SDS011;5503;53.208;10.392;2023-02-01T14:52:17;9.17;;;1.60;;
10900;SDS011;5503;53.208;10.392;2023-02-01T14:54:49;10.18;;;1.60;;
10900;SDS011;5503;53.208;10.392;2023-02-01T14:57:20;6.75;;;1.67;;
10900;SDS011;5503;53.208;10.392;2023-02-01T14:59:52;6.78;;;1.50;;
10900;SDS011;5503;53.208;10.392;2023-02-01T15:02:26;5.40;;;1.83;;
10900;SDS011;5503;53.208;10.392;2023-02-01T15:04:56;5.80;;;1.90;;
10900;SDS011;5503;53.208;10.392;2023-02-01T15:07:23;8.07;;;1.73;;
10900;SDS011;5503;53.208;10.392;2023-02-01T15:09:52;5.15;;;1.90;;
10900;SDS011;5503;53.208;10.392;2023-02-01T15:12:24;8.05;;;2.00;;
10900;SDS011;5503;53.208;10.392;2023-02-01T15:15:12;9.82;;;2.42;;
10900;SDS011;5503;53.208;10.392;2023-02-01T15:17:42;6.80;;;1.90;;
10900;SDS011;5503;53.208;10.392;2023-02-01T15:20:18;3.83;;;1.60;;
10900;SDS011;5503;53.208;10.392;2023-02-01T15:22:57;5.78;;;1.85;;
10900;SDS011;5503;53.208;10.392;2023-02-01T15:25:26;4.85;;;1.55;;
10900;SDS011;5503;53.208;10.392;2023-02-01T15:27:55;6.18;;;1.90;;
10900;SDS011;5503;53.208;10.392;2023-02-01T15:30:24;6.30;;;1.60;;
10900;SDS011;5503;53.208;10.392;2023-02-01T15:33:02;7.85;;;1.80;;